sensor_id;sensor_type;location;lat;lon;timestamp;pressure;altitude;pressure_sealevel;temperature;humidity
42337;BME280;27987;51.468;5.464;2022-08-19T00:00:38;101146.16;;;20.02;100.00
42337;BME280;27987;51.468;5.464;2022-08-19T00:03:05;101148.94;;;20.01;100.00
42337;BME280;27987;51.468;5.464;2022-08-19T00:05:33;101141.28;;;19.98;100.00
42337;BME280;27987;51.468;5.464;2022-08-19T00:08:00;101142.25;;;19.97;100.00
42337;BME280;27987;51.468;5.464;2022-08-19T00:10:30;101145.84;;;19.96;100.00
42337;BME280;27987;51.468;5.464;2022-08-19T00:12:57;101147.25;;;19.90;100.00
42337;BME280;27987;51.468;5.464;2022-08-19T00:15:23;101153.34;;;19.90;100.00
42337;BME280;27987;51.468;5.464;2022-08-19T00:17:50;101141.00;;;19.91;100.00
42337;BME280;27987;51.468;5.464;2022-08-19T00:20:20;101139.88;;;19.84;100.00
42337;BME280;27987;51.468;5.464;2022-08-19T00:22:47;101146.38;;;19.80;100.00
42337;BME280;27987;51.468;5.464;2022-08-19T00:25:14;101150.94;;;19.78;100.00
42337;BME280;27987;51.468;5.464;2022-08-19T00:27:43;101139.44;;;19.79;100.00
42337;BME280;27987;51.468;5.464;2022-08-19T00:30:11;101143.44;;;19.73;100.00
42337;BME280;27987;51.468;5.464;2022-08-19T00:32:37;101145.75;;;19.66;100.00
42337;BME280;27987;51.468;5.464;2022-08-19T00:35:05;101155.59;;;19.64;100.00
42337;BME280;27987;51.468;5.464;2022-08-19T00:37:32;101152.81;;;19.66;100.00
42337;BME280;27987;51.468;5.464;2022-08-19T00:40:01;101154.91;;;19.62;100.00
42337;BME280;27987;51.468;5.464;2022-08-19T00:42:29;101151.44;;;19.62;100.00
42337;BME280;27987;51.468;5.464;2022-08-19T00:44:58;101145.72;;;19.57;100.00
42337;BME280;27987;51.468;5.464;2022-08-19T00:47:25;101148.63;;;19.53;100.00
42337;BME280;27987;51.468;5.464;2022-08-19T00:49:54;101152.22;;;19.52;100.00
42337;BME280;27987;51.468;5.464;2022-08-19T00:52:24;101151.78;;;19.47;100.00
42337;BME280;27987;51.468;5.464;2022-08-19T00:54:54;101157.50;;;19.52;100.00
42337;BME280;27987;51.468;5.464;2022-08-19T00:57:24;101150.56;;;19.51;100.00
42337;BME280;27987;51.468;5.464;2022-08-19T00:59:54;101146.97;;;19.52;100.00
42337;BME280;27987;51.468;5.464;2022-08-19T01:02:23;101153.84;;;19.44;100.00
42337;BME280;27987;51.468;5.464;2022-08-19T01:04:50;101143.44;;;19.42;100.00
42337;BME280;27987;51.468;5.464;2022-08-19T01:07:17;101144.59;;;19.49;100.00
42337;BME280;27987;51.468;5.464;2022-08-19T01:09:43;101152.50;;;19.49;100.00
42337;BME280;27987;51.468;5.464;2022-08-19T01:12:10;101152.63;;;19.48;100.00
42337;BME280;27987;51.468;5.464;2022-08-19T01:14:37;101145.94;;;19.44;100.00
42337;BME280;27987;51.468;5.464;2022-08-19T01:17:05;101149.00;;;19.39;100.00
42337;BME280;27987;51.468;5.464;2022-08-19T01:19:35;101147.47;;;19.46;100.00
42337;BME280;27987;51.468;5.464;2022-08-19T01:22:06;101137.22;;;19.43;100.00
42337;BME280;27987;51.468;5.464;2022-08-19T01:24:36;101143.19;;;19.45;100.00
42337;BME280;27987;51.468;5.464;2022-08-19T01:27:04;101133.34;;;19.47;100.00
42337;BME280;27987;51.468;5.464;2022-08-19T01:29:31;101144.59;;;19.49;100.00
42337;BME280;27987;51.468;5.464;2022-08-19T01:31:58;101128.06;;;19.47;100.00
42337;BME280;27987;51.468;5.464;2022-08-19T01:34:25;101138.88;;;19.44;100.00
42337;BME280;27987;51.468;5.464;2022-08-19T01:36:52;101142.66;;;19.51;100.00
42337;BME280;27987;51.468;5.464;2022-08-19T01:39:23;101145.41;;;19.50;100.00
42337;BME280;27987;51.468;5.464;2022-08-19T01:41:53;101139.72;;;19.45;100.00
42337;BME280;27987;51.468;5.464;2022-08-19T01:44:23;101143.06;;;19.47;100.00
42337;BME280;27987;51.468;5.464;2022-08-19T01:46:51;101144.59;;;19.49;100.00
42337;BME280;27987;51.468;5.464;2022-08-19T01:49:20;101143.06;;;19.47;100.00
42337;BME280;27987;51.468;5.464;2022-08-19T01:51:47;101144.00;;;19.46;100.00
42337;BME280;27987;51.468;5.464;2022-08-19T01:54:16;101143.44;;;19.42;100.00
42337;BME280;27987;51.468;5.464;2022-08-19T01:56:51;101150.28;;;19.45;100.00
42337;BME280;27987;51.468;5.464;2022-08-19T01:59:20;101147.47;;;19.46;100.00
42337;BME280;27987;51.468;5.464;2022-08-19T02:01:48;101148.00;;;19.40;100.00
42337;BME280;27987;51.468;5.464;2022-08-19T02:04:15;101152.22;;;19.43;100.00
42337;BME280;27987;51.468;5.464;2022-08-19T02:06:42;101149.94;;;19.38;100.00
42337;BME280;27987;51.468;5.464;2022-08-19T02:09:09;101157.28;;;19.34;100.00
42337;BME280;27987;51.468;5.464;2022-08-19T02:11:36;101161.50;;;19.16;100.00
42337;BME280;27987;51.468;5.464;2022-08-19T02:14:05;101169.72;;;19.23;100.00
42337;BME280;27987;51.468;5.464;2022-08-19T02:16:35;101165.53;;;19.20;100.00
42337;BME280;27987;51.468;5.464;2022-08-19T02:19:03;101167.59;;;19.17;100.00
42337;BME280;27987;51.468;5.464;2022-08-19T02:21:30;101168.81;;;19.12;100.00
42337;BME280;27987;51.468;5.464;2022-08-19T02:23:57;101165.59;;;19.09;100.00
42337;BME280;27987;51.468;5.464;2022-08-19T02:26:24;101163.09;;;19.07;100.00
42337;BME280;27987;51.468;5.464;2022-08-19T02:28:52;101166.00;;;19.04;100.00
42337;BME280;27987;51.468;5.464;2022-08-19T02:31:21;101172.50;;;19.00;100.00
42337;BME280;27987;51.468;5.464;2022-08-19T02:33:50;101164.84;;;18.97;100.00
42337;BME280;27987;51.468;5.464;2022-08-19T02:36:18;101183.03;;;19.00;100.00
42337;BME280;27987;51.468;5.464;2022-08-19T02:38:44;101184.22;;;18.96;100.00
42337;BME280;27987;51.468;5.464;2022-08-19T02:41:12;101183.81;;;18.91;100.00
42337;BME280;27987;51.468;5.464;2022-08-19T02:43:39;101182.25;;;18.88;100.00
42337;BME280;27987;51.468;5.464;2022-08-19T02:46:12;101177.63;;;18.81;100.00
42337;BME280;27987;51.468;5.464;2022-08-19T02:48:43;101182.25;;;18.88;100.00
42337;BME280;27987;51.468;5.464;2022-08-19T02:51:17;101184.28;;;18.85;100.00
42337;BME280;27987;51.468;5.464;2022-08-19T02:53:44;101188.84;;;18.83;100.00
42337;BME280;27987;51.468;5.464;2022-08-19T02:56:11;101191.72;;;18.80;100.00
42337;BME280;27987;51.468;5.464;2022-08-19T02:58:38;101180.84;;;18.84;100.00
42337;BME280;27987;51.468;5.464;2022-08-19T03:01:05;101182.13;;;18.90;100.00
42337;BME280;27987;51.468;5.464;2022-08-19T03:03:31;101181.78;;;18.83;100.00
42337;BME280;27987;51.468;5.464;2022-08-19T03:06:06;101174.47;;;18.87;100.00
42337;BME280;27987;51.468;5.464;2022-08-19T03:08:36;101176.53;;;18.83;100.00
42337;BME280;27987;51.468;5.464;2022-08-19T03:11:03;101178.56;;;18.80;100.00
42337;BME280;27987;51.468;5.464;2022-08-19T03:13:30;101181.94;;;18.82;100.00
42337;BME280;27987;51.468;5.464;2022-08-19T03:15:57;101182.03;;;18.80;100.00
42337;BME280;27987;51.468;5.464;2022-08-19T03:18:24;101179.47;;;18.69;100.00
42337;BME280;27987;51.468;5.464;2022-08-19T03:20:52;101180.75;;;18.74;100.00
42337;BME280;27987;51.468;5.464;2022-08-19T03:23:20;101175.47;;;18.74;100.00
42337;BME280;27987;51.468;5.464;2022-08-19T03:25:49;101177.53;;;18.71;100.00
42337;BME280;27987;51.468;5.464;2022-08-19T03:28:17;101173.34;;;18.68;100.00
42337;BME280;27987;51.468;5.464;2022-08-19T03:30:55;101177.53;;;18.71;100.00
42337;BME280;27987;51.468;5.464;2022-08-19T03:33:25;101191.44;;;18.62;100.00
42337;BME280;27987;51.468;5.464;2022-08-19T03:36:07;101182.25;;;18.56;100.00
42337;BME280;27987;51.468;5.464;2022-08-19T03:38:36;101174.88;;;18.50;100.00
42337;BME280;27987;51.468;5.464;2022-08-19T03:41:06;101171.97;;;18.53;100.00
42337;BME280;27987;51.468;5.464;2022-08-19T03:43:37;101165.97;;;18.62;100.00
42337;BME280;27987;51.468;5.464;2022-08-19T03:46:06;101169.81;;;18.58;100.00
42337;BME280;27987;51.468;5.464;2022-08-19T03:48:35;101176.16;;;18.55;100.00
42337;BME280;27987;51.468;5.464;2022-08-19T03:51:02;101166.84;;;18.51;100.00
42337;BME280;27987;51.468;5.464;2022-08-19T03:53:30;101166.47;;;18.56;100.00
42337;BME280;27987;51.468;5.464;2022-08-19T03:55:58;101157.66;;;18.46;100.00
42337;BME280;27987;51.468;5.464;2022-08-19T03:58:28;101170.16;;;18.53;100.00
42337;BME280;27987;51.468;5.464;2022-08-19T04:00:56;101177.13;;;18.54;100.00
42337;BME280;27987;51.468;5.464;2022-08-19T04:03:23;101181.69;;;18.52;100.00
42337;BME280;27987;51.468;5.464;2022-08-19T04:05:57;101175.81;;;18.49;100.00
42337;BME280;27987;51.468;5.464;2022-08-19T04:08:25;101172.50;;;18.47;100.00
42337;BME280;27987;51.468;5.464;2022-08-19T04:10:52;101163.88;;;18.45;100.00
42337;BME280;27987;51.468;5.464;2022-08-19T04:13:19;101169.41;;;18.42;100.00
42337;BME280;27987;51.468;5.464;2022-08-19T04:15:47;101171.31;;;18.40;100.00
42337;BME280;27987;51.468;5.464;2022-08-19T04:18:15;101168.69;;;18.40;100.00
42337;BME280;27987;51.468;5.464;2022-08-19T04:20:42;101173.47;;;18.34;100.00
42337;BME280;27987;51.468;5.464;2022-08-19T04:23:10;101170.66;;;18.26;100.00
42337;BME280;27987;51.468;5.464;2022-08-19T04:25:38;101170.38;;;18.29;100.00
42337;BME280;27987;51.468;5.464;2022-08-19T04:28:06;101159.16;;;18.27;100.00
42337;BME280;27987;51.468;5.464;2022-08-19T04:30:38;101163.00;;;18.23;100.00
42337;BME280;27987;51.468;5.464;2022-08-19T04:33:10;101160.38;;;18.23;100.00
42337;BME280;27987;51.468;5.464;2022-08-19T04:35:44;101159.53;;;18.23;100.00
42337;BME280;27987;51.468;5.464;2022-08-19T04:38:13;101163.13;;;18.22;100.00
42337;BME280;27987;51.468;5.464;2022-08-19T04:40:40;101159.66;;;18.21;100.00
42337;BME280;27987;51.468;5.464;2022-08-19T04:43:25;101162.28;;;18.21;100.00
42337;BME280;27987;51.468;5.464;2022-08-19T04:45:54;101160.59;;;18.20;100.00
42337;BME280;27987;51.468;5.464;2022-08-19T04:48:25;101163.38;;;18.18;100.00
42337;BME280;27987;51.468;5.464;2022-08-19T04:50:52;101164.44;;;18.16;100.00
42337;BME280;27987;51.468;5.464;2022-08-19T04:53:23;101168.88;;;18.15;100.00
42337;BME280;27987;51.468;5.464;2022-08-19T04:55:52;101172.34;;;18.16;100.00
42337;BME280;27987;51.468;5.464;2022-08-19T04:58:22;101177.34;;;18.19;100.00
42337;BME280;27987;51.468;5.464;2022-08-19T05:00:49;101185.97;;;18.21;100.00
42337;BME280;27987;51.468;5.464;2022-08-19T05:03:16;101181.66;;;18.20;100.00
42337;BME280;27987;51.468;5.464;2022-08-19T05:05:44;101187.75;;;18.21;100.00
42337;BME280;27987;51.468;5.464;2022-08-19T05:08:15;101186.66;;;18.23;100.00
42337;BME280;27987;51.468;5.464;2022-08-19T05:10:45;101190.97;;;18.24;100.00
42337;BME280;27987;51.468;5.464;2022-08-19T05:13:12;101193.50;;;18.14;100.00
42337;BME280;27987;51.468;5.464;2022-08-19T05:15:40;101193.34;;;18.27;100.00
42337;BME280;27987;51.468;5.464;2022-08-19T05:18:07;101201.59;;;18.34;100.00
42337;BME280;27987;51.468;5.464;2022-08-19T05:20:52;101206.47;;;18.38;100.00
42337;BME280;27987;51.468;5.464;2022-08-19T05:23:37;101203.00;;;18.38;100.00
42337;BME280;27987;51.468;5.464;2022-08-19T05:26:04;101209.56;;;18.44;100.00
42337;BME280;27987;51.468;5.464;2022-08-19T05:28:31;101222.44;;;18.58;100.00
42337;BME280;27987;51.468;5.464;2022-08-19T05:31:00;101220.03;;;18.55;100.00
42337;BME280;27987;51.468;5.464;2022-08-19T05:33:27;101221.44;;;18.70;100.00
42337;BME280;27987;51.468;5.464;2022-08-19T05:35:55;101230.97;;;18.83;100.00
42337;BME280;27987;51.468;5.464;2022-08-19T05:38:22;101231.69;;;18.85;100.00
42337;BME280;27987;51.468;5.464;2022-08-19T05:40:48;101232.28;;;18.77;100.00
42337;BME280;27987;51.468;5.464;2022-08-19T05:43:15;101232.78;;;19.03;100.00
42337;BME280;27987;51.468;5.464;2022-08-19T05:45:43;101229.22;;;19.04;100.00
42337;BME280;27987;51.468;5.464;2022-08-19T05:48:10;101235.00;;;19.19;100.00
42337;BME280;27987;51.468;5.464;2022-08-19T05:50:38;101236.28;;;19.04;100.00
42337;BME280;27987;51.468;5.464;2022-08-19T05:53:08;101225.81;;;19.13;100.00
42337;BME280;27987;51.468;5.464;2022-08-19T05:55:35;101232.66;;;19.26;100.00
42337;BME280;27987;51.468;5.464;2022-08-19T05:58:03;101226.44;;;19.27;100.00
42337;BME280;27987;51.468;5.464;2022-08-19T06:00:32;101225.53;;;19.17;100.00
42337;BME280;27987;51.468;5.464;2022-08-19T06:02:59;101223.75;;;19.17;100.00
42337;BME280;27987;51.468;5.464;2022-08-19T06:05:34;101220.22;;;19.28;100.00
42337;BME280;27987;51.468;5.464;2022-08-19T06:08:01;101217.22;;;19.42;100.00
42337;BME280;27987;51.468;5.464;2022-08-19T06:10:29;101216.06;;;19.56;100.00
42337;BME280;27987;51.468;5.464;2022-08-19T06:12:56;101213.72;;;19.63;100.00
42337;BME280;27987;51.468;5.464;2022-08-19T06:15:23;101213.00;;;19.82;100.00
42337;BME280;27987;51.468;5.464;2022-08-19T06:17:51;101216.34;;;19.84;100.00
42337;BME280;27987;51.468;5.464;2022-08-19T06:20:17;101215.94;;;19.98;100.00
42337;BME280;27987;51.468;5.464;2022-08-19T06:22:47;101219.25;;;19.90;100.00
42337;BME280;27987;51.468;5.464;2022-08-19T06:25:17;101221.41;;;20.16;100.00
42337;BME280;27987;51.468;5.464;2022-08-19T06:27:45;101211.00;;;20.15;100.00
42337;BME280;27987;51.468;5.464;2022-08-19T06:30:12;101214.50;;;20.25;100.00
42337;BME280;27987;51.468;5.464;2022-08-19T06:32:40;101212.66;;;20.16;100.00
42337;BME280;27987;51.468;5.464;2022-08-19T06:35:07;101208.66;;;20.21;100.00
42337;BME280;27987;51.468;5.464;2022-08-19T06:37:34;101216.59;;;20.41;98.80
42337;BME280;27987;51.468;5.464;2022-08-19T06:40:03;101214.97;;;20.79;97.70
42337;BME280;27987;51.468;5.464;2022-08-19T06:42:32;101218.84;;;20.65;98.96
42337;BME280;27987;51.468;5.464;2022-08-19T06:45:01;101223.59;;;20.81;97.96
42337;BME280;27987;51.468;5.464;2022-08-19T06:47:29;101213.72;;;20.73;97.43
42337;BME280;27987;51.468;5.464;2022-08-19T06:49:56;101215.94;;;20.78;97.30
42337;BME280;27987;51.468;5.464;2022-08-19T06:52:27;101218.41;;;20.89;96.79
42337;BME280;27987;51.468;5.464;2022-08-19T06:54:57;101216.03;;;21.25;96.00
42337;BME280;27987;51.468;5.464;2022-08-19T06:57:25;101215.28;;;21.33;95.74
42337;BME280;27987;51.468;5.464;2022-08-19T06:59:52;101214.69;;;21.58;93.50
42337;BME280;27987;51.468;5.464;2022-08-19T07:02:21;101215.69;;;21.48;93.79
42337;BME280;27987;51.468;5.464;2022-08-19T07:04:51;101218.56;;;21.64;93.54
42337;BME280;27987;51.468;5.464;2022-08-19T07:07:19;101213.38;;;22.00;93.51
42337;BME280;27987;51.468;5.464;2022-08-19T07:09:49;101218.56;;;22.19;92.06
42337;BME280;27987;51.468;5.464;2022-08-19T07:12:18;101213.41;;;22.18;91.95
42337;BME280;27987;51.468;5.464;2022-08-19T07:14:45;101218.56;;;22.19;92.39
42337;BME280;27987;51.468;5.464;2022-08-19T07:17:15;101224.97;;;22.63;89.86
42337;BME280;27987;51.468;5.464;2022-08-19T07:19:45;101216.97;;;22.80;88.59
42337;BME280;27987;51.468;5.464;2022-08-19T07:22:11;101234.44;;;22.91;87.96
42337;BME280;27987;51.468;5.464;2022-08-19T07:24:38;101232.91;;;22.63;89.13
42337;BME280;27987;51.468;5.464;2022-08-19T07:27:06;101228.19;;;22.56;89.08
42337;BME280;27987;51.468;5.464;2022-08-19T07:29:34;101236.94;;;22.93;88.69
42337;BME280;27987;51.468;5.464;2022-08-19T07:32:02;101230.63;;;23.04;86.61
42337;BME280;27987;51.468;5.464;2022-08-19T07:34:30;101231.91;;;22.81;87.50
42337;BME280;27987;51.468;5.464;2022-08-19T07:37:01;101236.03;;;23.02;87.64
42337;BME280;27987;51.468;5.464;2022-08-19T07:39:30;101236.28;;;23.09;85.84
42337;BME280;27987;51.468;5.464;2022-08-19T07:41:59;101236.31;;;23.17;86.45
42337;BME280;27987;51.468;5.464;2022-08-19T07:44:26;101243.09;;;23.37;84.47
42337;BME280;27987;51.468;5.464;2022-08-19T07:46:56;101246.38;;;23.31;83.76
42337;BME280;27987;51.468;5.464;2022-08-19T07:49:23;101254.63;;;23.28;85.93
42337;BME280;27987;51.468;5.464;2022-08-19T07:51:54;101246.63;;;23.46;85.25
42337;BME280;27987;51.468;5.464;2022-08-19T07:54:24;101256.34;;;23.37;86.40
42337;BME280;27987;51.468;5.464;2022-08-19T07:56:52;101267.31;;;23.69;83.76
42337;BME280;27987;51.468;5.464;2022-08-19T07:59:19;101263.28;;;23.91;81.90
42337;BME280;27987;51.468;5.464;2022-08-19T08:01:47;101258.63;;;24.35;79.67
42337;BME280;27987;51.468;5.464;2022-08-19T08:04:15;101266.69;;;24.09;80.81
42337;BME280;27987;51.468;5.464;2022-08-19T08:06:59;101254.44;;;24.33;79.75
42337;BME280;27987;51.468;5.464;2022-08-19T08:09:45;101256.88;;;24.85;78.18
42337;BME280;27987;51.468;5.464;2022-08-19T08:12:16;101267.34;;;24.79;77.90
42337;BME280;27987;51.468;5.464;2022-08-19T08:14:48;101271.66;;;24.88;77.16
42337;BME280;27987;51.468;5.464;2022-08-19T08:17:16;101265.34;;;24.89;75.64
42337;BME280;27987;51.468;5.464;2022-08-19T08:19:43;101273.97;;;24.99;75.05
42337;BME280;27987;51.468;5.464;2022-08-19T08:22:13;101260.84;;;24.73;76.30
42337;BME280;27987;51.468;5.464;2022-08-19T08:25:05;101282.19;;;24.39;78.04
42337;BME280;27987;51.468;5.464;2022-08-19T08:27:35;101285.94;;;24.70;76.18
42337;BME280;27987;51.468;5.464;2022-08-19T08:30:04;101285.25;;;24.85;74.07
42337;BME280;27987;51.468;5.464;2022-08-19T08:32:31;101287.94;;;25.01;73.74
42337;BME280;27987;51.468;5.464;2022-08-19T08:34:58;101293.72;;;24.88;73.12
42337;BME280;27987;51.468;5.464;2022-08-19T08:37:25;101295.06;;;24.76;73.50
42337;BME280;27987;51.468;5.464;2022-08-19T08:39:52;101293.41;;;24.75;75.09
42337;BME280;27987;51.468;5.464;2022-08-19T08:42:24;101299.22;;;24.70;74.01
42337;BME280;27987;51.468;5.464;2022-08-19T08:44:58;101302.44;;;24.48;74.32
42337;BME280;27987;51.468;5.464;2022-08-19T08:47:26;101297.81;;;24.50;75.87
42337;BME280;27987;51.468;5.464;2022-08-19T08:49:56;101310.31;;;24.58;73.90
42337;BME280;27987;51.468;5.464;2022-08-19T08:52:28;101301.22;;;24.68;76.35
42337;BME280;27987;51.468;5.464;2022-08-19T08:54:57;101292.59;;;24.91;74.02
42337;BME280;27987;51.468;5.464;2022-08-19T08:57:32;101299.72;;;25.15;71.96
42337;BME280;27987;51.468;5.464;2022-08-19T09:00:06;101300.56;;;25.24;71.56
42337;BME280;27987;51.468;5.464;2022-08-19T09:02:34;101293.75;;;25.38;70.05
42337;BME280;27987;51.468;5.464;2022-08-19T09:05:01;101301.56;;;25.23;71.67
42337;BME280;27987;51.468;5.464;2022-08-19T09:07:35;101296.03;;;25.65;68.87
42337;BME280;27987;51.468;5.464;2022-08-19T09:10:10;101299.19;;;25.61;69.69
42337;BME280;27987;51.468;5.464;2022-08-19T09:12:45;101300.59;;;25.88;69.02
42337;BME280;27987;51.468;5.464;2022-08-19T09:15:15;101301.78;;;25.94;68.13
42337;BME280;27987;51.468;5.464;2022-08-19T09:17:43;101304.63;;;26.23;66.45
42337;BME280;27987;51.468;5.464;2022-08-19T09:20:15;101300.75;;;26.34;65.62
42337;BME280;27987;51.468;5.464;2022-08-19T09:22:43;101305.19;;;26.11;66.98
42337;BME280;27987;51.468;5.464;2022-08-19T09:25:13;101300.91;;;26.10;67.04
42337;BME280;27987;51.468;5.464;2022-08-19T09:27:42;101306.38;;;26.08;68.41
42337;BME280;27987;51.468;5.464;2022-08-19T09:30:13;101308.00;;;26.49;65.11
42337;BME280;27987;51.468;5.464;2022-08-19T09:32:40;101317.41;;;25.97;66.47
42337;BME280;27987;51.468;5.464;2022-08-19T09:35:13;101317.22;;;25.90;66.93
42337;BME280;27987;51.468;5.464;2022-08-19T09:37:40;101315.25;;;25.84;66.98
42337;BME280;27987;51.468;5.464;2022-08-19T09:40:14;101313.31;;;25.69;67.92
42337;BME280;27987;51.468;5.464;2022-08-19T09:42:42;101313.00;;;25.56;67.25
42337;BME280;27987;51.468;5.464;2022-08-19T09:45:12;101316.88;;;25.37;68.96
42337;BME280;27987;51.468;5.464;2022-08-19T09:47:40;101308.66;;;25.55;69.13
42337;BME280;27987;51.468;5.464;2022-08-19T09:50:08;101311.16;;;25.65;69.03
42337;BME280;27987;51.468;5.464;2022-08-19T09:52:39;101321.00;;;25.56;70.21
42337;BME280;27987;51.468;5.464;2022-08-19T09:55:09;101324.50;;;25.40;70.14
42337;BME280;27987;51.468;5.464;2022-08-19T09:57:36;101317.16;;;24.85;72.25
42337;BME280;27987;51.468;5.464;2022-08-19T10:00:07;101322.66;;;24.91;72.69
42337;BME280;27987;51.468;5.464;2022-08-19T10:02:35;101324.97;;;25.11;72.97
42337;BME280;27987;51.468;5.464;2022-08-19T10:05:02;101325.34;;;25.33;70.62
42337;BME280;27987;51.468;5.464;2022-08-19T10:07:47;101317.50;;;25.56;69.18
42337;BME280;27987;51.468;5.464;2022-08-19T10:10:14;101323.03;;;26.02;68.27
42337;BME280;27987;51.468;5.464;2022-08-19T10:12:41;101319.16;;;26.13;66.69
42337;BME280;27987;51.468;5.464;2022-08-19T10:15:15;101324.44;;;26.52;66.07
42337;BME280;27987;51.468;5.464;2022-08-19T10:17:46;101325.38;;;26.36;66.22
42337;BME280;27987;51.468;5.464;2022-08-19T10:20:13;101314.25;;;26.33;67.09
42337;BME280;27987;51.468;5.464;2022-08-19T10:22:42;101319.97;;;26.53;65.91
42337;BME280;27987;51.468;5.464;2022-08-19T10:25:11;101319.75;;;26.62;65.09
42337;BME280;27987;51.468;5.464;2022-08-19T10:27:42;101322.78;;;26.28;65.53
42337;BME280;27987;51.468;5.464;2022-08-19T10:30:09;101316.44;;;26.29;66.07
42337;BME280;27987;51.468;5.464;2022-08-19T10:32:38;101323.00;;;26.10;67.57
42337;BME280;27987;51.468;5.464;2022-08-19T10:35:05;101323.75;;;26.58;66.50
42337;BME280;27987;51.468;5.464;2022-08-19T10:37:33;101317.00;;;26.79;64.57
42337;BME280;27987;51.468;5.464;2022-08-19T10:40:00;101310.63;;;27.03;64.32
42337;BME280;27987;51.468;5.464;2022-08-19T10:42:28;101315.72;;;27.13;62.37
42337;BME280;27987;51.468;5.464;2022-08-19T10:44:56;101316.59;;;26.59;64.73
42337;BME280;27987;51.468;5.464;2022-08-19T10:47:23;101316.69;;;26.42;63.95
42337;BME280;27987;51.468;5.464;2022-08-19T10:49:52;101302.47;;;26.81;63.68
42337;BME280;27987;51.468;5.464;2022-08-19T10:52:37;101307.28;;;27.77;60.36
42337;BME280;27987;51.468;5.464;2022-08-19T10:55:07;101309.56;;;28.10;60.28
42337;BME280;27987;51.468;5.464;2022-08-19T10:57:51;101300.31;;;28.64;56.46
42337;BME280;27987;51.468;5.464;2022-08-19T11:00:20;101296.41;;;28.45;56.91
42337;BME280;27987;51.468;5.464;2022-08-19T11:02:48;101299.56;;;28.33;56.57
42337;BME280;27987;51.468;5.464;2022-08-19T11:05:17;101295.63;;;28.29;56.92
42337;BME280;27987;51.468;5.464;2022-08-19T11:07:47;101295.00;;;28.27;56.12
42337;BME280;27987;51.468;5.464;2022-08-19T11:10:17;101296.66;;;28.13;57.63
42337;BME280;27987;51.468;5.464;2022-08-19T11:12:44;101294.22;;;28.33;56.64
42337;BME280;27987;51.468;5.464;2022-08-19T11:15:12;101289.16;;;28.38;57.56
42337;BME280;27987;51.468;5.464;2022-08-19T11:17:39;101290.78;;;28.76;55.95
42337;BME280;27987;51.468;5.464;2022-08-19T11:20:10;101297.72;;;28.92;55.72
42337;BME280;27987;51.468;5.464;2022-08-19T11:22:39;101303.06;;;28.70;53.58
42337;BME280;27987;51.468;5.464;2022-08-19T11:25:07;101295.94;;;28.56;55.48
42337;BME280;27987;51.468;5.464;2022-08-19T11:27:37;101282.94;;;28.16;56.15
42337;BME280;27987;51.468;5.464;2022-08-19T11:30:06;101293.53;;;27.65;58.35
42337;BME280;27987;51.468;5.464;2022-08-19T11:32:33;101296.03;;;27.52;58.11
42337;BME280;27987;51.468;5.464;2022-08-19T11:35:00;101290.63;;;28.05;57.92
42337;BME280;27987;51.468;5.464;2022-08-19T11:37:27;101278.09;;;28.05;56.91
42337;BME280;27987;51.468;5.464;2022-08-19T11:39:55;101285.06;;;28.43;57.44
42337;BME280;27987;51.468;5.464;2022-08-19T11:42:21;101279.81;;;29.49;53.35
42337;BME280;27987;51.468;5.464;2022-08-19T11:45:17;101280.75;;;29.69;51.26
42337;BME280;27987;51.468;5.464;2022-08-19T11:47:44;101286.94;;;30.11;49.38
42337;BME280;27987;51.468;5.464;2022-08-19T11:50:13;101287.44;;;29.80;50.24
42337;BME280;27987;51.468;5.464;2022-08-19T11:52:40;101283.56;;;28.98;51.82
42337;BME280;27987;51.468;5.464;2022-08-19T11:55:12;101280.44;;;28.51;53.29
42337;BME280;27987;51.468;5.464;2022-08-19T11:57:39;101276.81;;;29.02;53.08
42337;BME280;27987;51.468;5.464;2022-08-19T12:00:07;101273.44;;;30.33;49.70
42337;BME280;27987;51.468;5.464;2022-08-19T12:02:36;101288.28;;;30.36;48.75
42337;BME280;27987;51.468;5.464;2022-08-19T12:05:04;101280.28;;;30.69;48.21
42337;BME280;27987;51.468;5.464;2022-08-19T12:07:31;101286.31;;;30.16;49.02
42337;BME280;27987;51.468;5.464;2022-08-19T12:10:01;101276.41;;;28.41;53.22
42337;BME280;27987;51.468;5.464;2022-08-19T12:12:30;101286.75;;;28.65;53.71
42337;BME280;27987;51.468;5.464;2022-08-19T12:14:57;101289.38;;;28.59;56.21
42337;BME280;27987;51.468;5.464;2022-08-19T12:17:27;101295.03;;;28.70;53.67
42337;BME280;27987;51.468;5.464;2022-08-19T12:19:56;101291.41;;;29.56;51.56
42337;BME280;27987;51.468;5.464;2022-08-19T12:22:22;101288.16;;;29.67;52.17
42337;BME280;27987;51.468;5.464;2022-08-19T12:24:52;101292.06;;;29.30;51.35
42337;BME280;27987;51.468;5.464;2022-08-19T12:27:27;101277.41;;;28.39;55.33
42337;BME280;27987;51.468;5.464;2022-08-19T12:29:58;101279.09;;;28.04;55.58
42337;BME280;27987;51.468;5.464;2022-08-19T12:32:27;101279.56;;;27.78;57.94
42337;BME280;27987;51.468;5.464;2022-08-19T12:34:54;101282.22;;;27.63;58.33
42337;BME280;27987;51.468;5.464;2022-08-19T12:37:20;101283.53;;;27.14;61.46
42337;BME280;27987;51.468;5.464;2022-08-19T12:39:48;101280.09;;;27.29;61.72
42337;BME280;27987;51.468;5.464;2022-08-19T12:42:15;101278.94;;;27.08;60.45
42337;BME280;27987;51.468;5.464;2022-08-19T12:44:43;101279.38;;;26.97;61.88
42337;BME280;27987;51.468;5.464;2022-08-19T12:47:12;101282.31;;;27.40;61.47
42337;BME280;27987;51.468;5.464;2022-08-19T12:49:40;101270.25;;;28.40;57.60
42337;BME280;27987;51.468;5.464;2022-08-19T12:52:14;101265.22;;;30.68;51.76
42337;BME280;27987;51.468;5.464;2022-08-19T12:54:41;101275.09;;;32.45;46.95